ロンドン/ヒースロー の空港の天気 - METARとTAF

ロンドン・ヒースロー空港 ( EGLL / LHR ) - イギリス ロンドン
飛行場実況気象(Metar)
観測時間07/29 02:20 BST (07/29 01:20 UTC)
風向・風速西南西 6m/s
視程10km以上
天気現象
なし
気温13℃
湿度82%
気圧1008hPa
METAREGLL 290120Z AUTO 24012KT 9999 NCD 13/10 Q1008 NOSIG
過去の天気等 Google飛行場航空写真 Wunderground天気予報

過去48時間のMETAR

飛行場予報(TAF)
発表時間: 7/29 00:00 BST (7/28 23:00 UTC)
予報対象時間: 29日1時 BST ~ 30日7時 BST
風向・風速西南西 5m/s
視程10km以上
少しの雲 雲底高度 910m
29日23時 BST ~ 30日2時 BST に徐々に
風向・風速南南東 4m/s
30日0時 BST ~ 30日7時 BST に一時的に
視程7000m
天気現象
30日2時 BST ~ 30日7時 BST に 確率 30% で一時的に
視程4000m
天気現象強い雨
全天の8割程度の雲 雲底高度 300m
TAF EGLL 282300Z 2900/3006 24010KT 9999 FEW030
BECMG 2922/3001 15008KT
TEMPO 2923/3006 7000 RA
PROB30 TEMPO 3001/3006 4000 +RA BKN010